Terminal Aerodrome Forecast
Issued by NWS

Home | Current Version | Previous Version | Text Only | Print | Product List | Glossary On
Versions: 1 2 3 4 5 6 7 8 9 10 11 12 13 14 15 16 17 18
000
FTUS43 KICT 211100
TAFSLN
TAF
KSLN 211127Z 2112/2212 10004KT P6SM FEW040
      TEMPO 2112/2114 5SM BR
     FM211700 16009KT P6SM SCT040=

USA.gov is the U.S. government's official web portal to all federal, state and local government web resources and services.